Time;durP1;ratioP1;P1;durP2;ratioP2;P2;SDS_P1;SDS_P2;PMS_P1;PMS_P2;Temp;Humidity;BMP_temperature;BMP_pressure;BME280_temperature;BME280_humidity;BME280_pressure;Samples;Min_cycle;Max_cycle;Signal;HPM_P1;HPM_P2
2023/08/10 00:03:58;;;;;;;;;;;;;;;15.49;65.1543;102183.1;;;;-70
2023/08/10 00:08:58;;;;;;;;;;;;;;;15.51;65.14648;102184.3;;;;-70
2023/08/10 00:09:47;;;;;;;0.2;0.1;;;;;;;;;;;;;-70
2023/08/10 00:13:59;;;;;;;;;;;;;;;15.49;65.06348;102180.3;;;;-70
2023/08/10 00:18:59;;;;;;;;;;;;;;;15.49;65.14258;102178.8;;;;-70
2023/08/10 00:23:59;;;;;;;;;;;;;;;15.47;65.26367;102180.1;;;;-70
2023/08/10 00:28:58;;;;;;;;;;;;;;;15.47;65.28613;102183.8;;;;-70
2023/08/10 00:33:58;;;;;;;;;;;;;;;15.43;65.45898;102188.3;;;;-71
2023/08/10 00:38:58;;;;;;;;;;;;;;;15.42;65.44629;102189.8;;;;-71
2023/08/10 00:39:49;;;;;;;0.2;0;;;;;;;;;;;;;-71
2023/08/10 00:43:58;;;;;;;;;;;;;;;15.42;65.69336;102187.6;;;;-69
2023/08/10 00:48:58;;;;;;;;;;;;;;;15.39;65.52148;102185.8;;;;-70
2023/08/10 00:53:58;;;;;;;;;;;;;;;15.38;65.93555;102186.6;;;;-69
2023/08/10 00:58:58;;;;;;;;;;;;;;;15.36;65.8877;102186.4;;;;-70
2023/08/10 01:03:58;;;;;;;;;;;;;;;15.33;65.99707;102186.6;;;;-69
2023/08/10 01:09:10;;;;;;;;;;;;;;;15.3;66.0127;102182;;;;-71
2023/08/10 01:09:55;;;;;;;0.2;0.1;;;;;;;;;;;;;-70
2023/08/10 01:14:03;;;;;;;;;;;;;;;15.28;66.43848;102188;;;;-71
2023/08/10 01:18:58;;;;;;;;;;;;;;;15.28;66.12305;102184.8;;;;-74
2023/08/10 01:23:59;;;;;;;;;;;;;;;15.24;66.20703;102190.4;;;;-71
2023/08/10 01:28:59;;;;;;;;;;;;;;;15.25;65.9834;102195;;;;-71
2023/08/10 01:33:58;;;;;;;;;;;;;;;15.2;65.89844;102201.3;;;;-71
2023/08/10 01:38:58;;;;;;;;;;;;;;;15.16;66.04883;102202.3;;;;-70
2023/08/10 01:39:55;;;;;;;0.2;0;;;;;;;;;;;;;-69
2023/08/10 01:43:58;;;;;;;;;;;;;;;15.11;66.12109;102202.7;;;;-70
2023/08/10 01:49:00;;;;;;;;;;;;;;;15.06;66.10156;102205.1;;;;-70
2023/08/10 01:53:59;;;;;;;;;;;;;;;15;66.09277;102205.2;;;;-70
2023/08/10 01:58:58;;;;;;;;;;;;;;;14.96;66.15332;102205.3;;;;-70
2023/08/10 02:03:58;;;;;;;;;;;;;;;14.9;66.05566;102207.1;;;;-71
2023/08/10 02:08:58;;;;;;;;;;;;;;;14.91;66.05664;102196.4;;;;-70
2023/08/10 02:09:57;;;;;;;0.2;0.1;;;;;;;;;;;;;-70
2023/08/10 02:13:58;;;;;;;;;;;;;;;14.88;66.12012;102197.1;;;;-71
2023/08/10 02:18:58;;;;;;;;;;;;;;;14.85;66.18066;102199;;;;-71
2023/08/10 02:23:58;;;;;;;;;;;;;;;14.83;66.29004;102190.6;;;;-69
2023/08/10 02:29:00;;;;;;;;;;;;;;;14.77;66.22559;102187;;;;-70
2023/08/10 02:33:58;;;;;;;;;;;;;;;14.72;66.24121;102188.6;;;;-70
2023/08/10 02:38:58;;;;;;;;;;;;;;;14.65;66.16309;102190;;;;-70
2023/08/10 02:39:58;;;;;;;0.2;0.1;;;;;;;;;;;;;-70
2023/08/10 02:43:58;;;;;;;;;;;;;;;14.61;66.34961;102191.7;;;;-71
2023/08/10 02:48:58;;;;;;;;;;;;;;;14.53;66.61621;102196.9;;;;-72
2023/08/10 02:53:58;;;;;;;;;;;;;;;14.45;66.3125;102194.4;;;;-71
2023/08/10 02:59:00;;;;;;;;;;;;;;;14.39;66.40527;102199.8;;;;-70
2023/08/10 03:03:58;;;;;;;;;;;;;;;14.35;66.28613;102203.3;;;;-70
2023/08/10 03:08:58;;;;;;;;;;;;;;;14.31;66.53711;102205.9;;;;-70
2023/08/10 03:10:01;;;;;;;0.2;0.1;;;;;;;;;;;;;-70
2023/08/10 03:13:58;;;;;;;;;;;;;;;14.25;66.4502;102195.7;;;;-70
2023/08/10 03:18:58;;;;;;;;;;;;;;;14.21;66.44531;102190.8;;;;-70
2023/08/10 03:23:58;;;;;;;;;;;;;;;14.18;66.41895;102191.1;;;;-70
2023/08/10 03:28:58;;;;;;;;;;;;;;;14.15;66.43555;102192.8;;;;-70
2023/08/10 03:33:58;;;;;;;;;;;;;;;14.11;66.63184;102187.3;;;;-69
2023/08/10 03:38:58;;;;;;;;;;;;;;;14.08;66.75098;102183.8;;;;-71
2023/08/10 03:40:03;;;;;;;0.2;0;;;;;;;;;;;;;-70
2023/08/10 03:43:58;;;;;;;;;;;;;;;14.05;66.52246;102184.1;;;;-71
2023/08/10 03:48:58;;;;;;;;;;;;;;;14.03;66.72949;102175.5;;;;-70
2023/08/10 03:53:58;;;;;;;;;;;;;;;13.98;66.82324;102176.7;;;;-70
2023/08/10 03:58:59;;;;;;;;;;;;;;;13.97;66.94531;102180.3;;;;-69
2023/08/10 04:03:58;;;;;;;;;;;;;;;13.91;66.83594;102189.5;;;;-71
2023/08/10 04:08:58;;;;;;;;;;;;;;;13.9;66.85547;102197.3;;;;-71
2023/08/10 04:10:05;;;;;;;0.3;0.2;;;;;;;;;;;;;-70
2023/08/10 04:13:58;;;;;;;;;;;;;;;13.82;66.95703;102200.1;;;;-70
2023/08/10 04:18:58;;;;;;;;;;;;;;;13.8;66.94141;102203.6;;;;-70
2023/08/10 04:23:58;;;;;;;;;;;;;;;13.77;67.22852;102209.8;;;;-70
2023/08/10 04:28:58;;;;;;;;;;;;;;;13.76;67.42871;102204;;;;-71
2023/08/10 04:33:58;;;;;;;;;;;;;;;13.74;67.19043;102207.6;;;;-70
2023/08/10 04:38:58;;;;;;;;;;;;;;;13.74;67.05664;102205.4;;;;-72
2023/08/10 04:40:09;;;;;;;0.2;0.1;;;;;;;;;;;;;-70
2023/08/10 04:43:58;;;;;;;;;;;;;;;13.72;67.19922;102205.9;;;;-70
2023/08/10 04:48:58;;;;;;;;;;;;;;;13.72;67.03125;102206.5;;;;-70
2023/08/10 04:53:58;;;;;;;;;;;;;;;13.73;67.00977;102201.3;;;;-70
2023/08/10 04:58:58;;;;;;;;;;;;;;;13.72;67.06445;102201.6;;;;-69
2023/08/10 05:03:59;;;;;;;;;;;;;;;13.74;67.16797;102200.2;;;;-70
2023/08/10 05:08:58;;;;;;;;;;;;;;;13.77;67.36426;102200.6;;;;-70
2023/08/10 05:10:10;;;;;;;0.2;0.1;;;;;;;;;;;;;-70
2023/08/10 05:13:58;;;;;;;;;;;;;;;13.82;67.03516;102200.3;;;;-71
2023/08/10 05:18:58;;;;;;;;;;;;;;;13.84;67.39648;102200;;;;-70
2023/08/10 05:23:58;;;;;;;;;;;;;;;13.9;67.24902;102201.8;;;;-71
2023/08/10 05:28:58;;;;;;;;;;;;;;;13.96;67.06836;102202.8;;;;-70
2023/08/10 05:33:58;;;;;;;;;;;;;;;14.01;67.91504;102200;;;;-70
2023/08/10 05:38:58;;;;;;;;;;;;;;;14.19;67.47266;102197.8;;;;-70
2023/08/10 05:40:13;;;;;;;0.2;0.1;;;;;;;;;;;;;-70
2023/08/10 05:43:58;;;;;;;;;;;;;;;14.42;67.35059;102193.1;;;;-70
2023/08/10 05:48:58;;;;;;;;;;;;;;;14.66;67.8916;102183.2;;;;-71
2023/08/10 05:53:58;;;;;;;;;;;;;;;14.96;68.19629;102183.6;;;;-71
2023/08/10 05:58:58;;;;;;;;;;;;;;;15.2;67.07715;102187.4;;;;-71
2023/08/10 06:03:59;;;;;;;;;;;;;;;15.53;66.94727;102189.6;;;;-70
2023/08/10 06:08:58;;;;;;;;;;;;;;;16.13;65.74414;102186;;;;-71
2023/08/10 06:10:14;;;;;;;0.2;0;;;;;;;;;;;;;-71
2023/08/10 06:13:58;;;;;;;;;;;;;;;16.68;65.09277;102190.5;;;;-69
2023/08/10 06:18:58;;;;;;;;;;;;;;;17.16;64.97168;102196.8;;;;-71
2023/08/10 06:23:58;;;;;;;;;;;;;;;17.48;64.39746;102190.4;;;;-69
2023/08/10 06:29:00;;;;;;;;;;;;;;;17.8;63.7666;102190.9;;;;-69
2023/08/10 06:33:58;;;;;;;;;;;;;;;17.97;63.76758;102186;;;;-71
2023/08/10 06:38:58;;;;;;;;;;;;;;;18.36;64.25391;102188.7;;;;-70
2023/08/10 06:40:16;;;;;;;0.2;0.1;;;;;;;;;;;;;-69
2023/08/10 06:43:58;;;;;;;;;;;;;;;18.62;64.17871;102188.7;;;;-70
2023/08/10 06:48:59;;;;;;;;;;;;;;;18.87;63.50098;102199.8;;;;-70
2023/08/10 06:53:58;;;;;;;;;;;;;;;18.8;63.96582;102204.3;;;;-71
2023/08/10 06:58:58;;;;;;;;;;;;;;;18.93;64.30176;102213.5;;;;-71
2023/08/10 07:03:58;;;;;;;;;;;;;;;18.88;65.20117;102218.3;;;;-69
2023/08/10 07:08:58;;;;;;;;;;;;;;;18.92;65.17383;102213.3;;;;-71
2023/08/10 07:10:18;;;;;;;0.2;0.1;;;;;;;;;;;;;-70
2023/08/10 07:13:58;;;;;;;;;;;;;;;19.05;64.09375;102215.5;;;;-69
2023/08/10 07:18:58;;;;;;;;;;;;;;;19.16;64.0625;102209.2;;;;-70
2023/08/10 07:23:58;;;;;;;;;;;;;;;19.27;63.5791;102208.2;;;;-71
2023/08/10 07:28:58;;;;;;;;;;;;;;;19.26;63.60156;102207.5;;;;-71
2023/08/10 07:33:58;;;;;;;;;;;;;;;19.27;64.08008;102209.1;;;;-71
2023/08/10 07:38:59;;;;;;;;;;;;;;;19.27;64.0459;102210.5;;;;-70
2023/08/10 07:40:20;;;;;;;0.3;0.2;;;;;;;;;;;;;-70
2023/08/10 07:43:58;;;;;;;;;;;;;;;19.28;64.22656;102215.5;;;;-71
2023/08/10 07:48:58;;;;;;;;;;;;;;;19.3;64.28809;102222.1;;;;-71
2023/08/10 07:53:58;;;;;;;;;;;;;;;19.33;64.41602;102220.2;;;;-71
2023/08/10 07:58:59;;;;;;;;;;;;;;;19.35;64.56738;102217.8;;;;-70
2023/08/10 08:03:58;;;;;;;;;;;;;;;19.44;64.86328;102225.2;;;;-70
2023/08/10 08:08:58;;;;;;;;;;;;;;;19.51;64.5791;102221.7;;;;-70
2023/08/10 08:10:23;;;;;;;0.2;0;;;;;;;;;;;;;-70
2023/08/10 08:13:58;;;;;;;;;;;;;;;19.63;64.20996;102223.4;;;;-70
2023/08/10 08:18:58;;;;;;;;;;;;;;;19.72;63.95215;102218.8;;;;-69
2023/08/10 08:23:59;;;;;;;;;;;;;;;19.82;63.93262;102223.9;;;;-71
2023/08/10 08:28:58;;;;;;;;;;;;;;;19.96;63.59863;102225.2;;;;-69
2023/08/10 08:33:58;;;;;;;;;;;;;;;20.13;63.42969;102235;;;;-70
2023/08/10 08:38:58;;;;;;;;;;;;;;;20.27;62.8916;102233.6;;;;-71
2023/08/10 08:40:26;;;;;;;0.2;0.1;;;;;;;;;;;;;-70
2023/08/10 08:43:59;;;;;;;;;;;;;;;20.4;62.92285;102237.2;;;;-70
2023/08/10 08:48:58;;;;;;;;;;;;;;;20.53;62.58789;102230.3;;;;-70
2023/08/10 08:54:00;;;;;;;;;;;;;;;20.67;61.98242;102225.1;;;;-70
2023/08/10 08:58:58;;;;;;;;;;;;;;;20.86;61.84766;102227.4;;;;-69
2023/08/10 09:03:58;;;;;;;;;;;;;;;20.93;61.23242;102224.4;;;;-69
2023/08/10 09:08:58;;;;;;;;;;;;;;;21.03;60.93848;102226.9;;;;-70
2023/08/10 09:10:29;;;;;;;0.2;0;;;;;;;;;;;;;-70
2023/08/10 09:14:13;;;;;;;;;;;;;;;21.14;61.00977;102231.6;;;;-71
2023/08/10 09:18:58;;;;;;;;;;;;;;;21.27;60.73047;102228.8;;;;-70
2023/08/10 09:23:59;;;;;;;;;;;;;;;21.44;60.19629;102223.4;;;;-69
2023/08/10 09:28:59;;;;;;;;;;;;;;;21.64;59.89063;102217.3;;;;-69
2023/08/10 09:34:00;;;;;;;;;;;;;;;21.79;59.64746;102217;;;;-69
2023/08/10 09:39:00;;;;;;;;;;;;;;;21.91;58.55566;102221;;;;-70
2023/08/10 09:40:33;;;;;;;0.2;0;;;;;;;;;;;;;-69
2023/08/10 09:43:58;;;;;;;;;;;;;;;22.12;58.84473;102216.3;;;;-67
2023/08/10 09:48:58;;;;;;;;;;;;;;;22.62;57.90332;102215.1;;;;-70
2023/08/10 09:53:58;;;;;;;;;;;;;;;23.01;56.83203;102213.5;;;;-69
2023/08/10 09:58:58;;;;;;;;;;;;;;;23.22;56.2041;102215;;;;-71
2023/08/10 10:03:58;;;;;;;;;;;;;;;23.35;55.86523;102217.6;;;;-73
2023/08/10 10:09:01;;;;;;;;;;;;;;;23.48;55.99707;102220;;;;-70
2023/08/10 10:10:38;;;;;;;0.2;0.1;;;;;;;;;;;;;-70
2023/08/10 10:13:58;;;;;;;;;;;;;;;23.56;55.48926;102225.3;;;;-70
2023/08/10 10:18:59;;;;;;;;;;;;;;;23.67;55.70996;102221.2;;;;-71
2023/08/10 10:24:04;;;;;;;;;;;;;;;23.71;55.64648;102220.8;;;;-71
2023/08/10 10:29:11;;;;;;;;;;;;;;;23.73;55.45313;102221;;;;-72
2023/08/10 10:34:05;;;;;;;;;;;;;;;23.7;55.75977;102220.8;;;;-70
2023/08/10 10:39:07;;;;;;;;;;;;;;;23.57;55.52539;102229.3;;;;-71
2023/08/10 10:40:40;;;;;;;0.2;0;;;;;;;;;;;;;-71
2023/08/10 10:43:58;;;;;;;;;;;;;;;23.53;55.75;102225.4;;;;-71
2023/08/10 10:48:58;;;;;;;;;;;;;;;23.58;55.99707;102219.5;;;;-70
2023/08/10 10:53:59;;;;;;;;;;;;;;;23.69;55.84961;102224.3;;;;-71
2023/08/10 10:58:58;;;;;;;;;;;;;;;23.89;55.18555;102221.9;;;;-71
2023/08/10 11:03:59;;;;;;;;;;;;;;;24.09;54.92188;102232.7;;;;-71
2023/08/10 11:08:58;;;;;;;;;;;;;;;24.21;54.62598;102236;;;;-70
2023/08/10 11:10:44;;;;;;;0.8;0.3;;;;;;;;;;;;;-70
2023/08/10 11:13:59;;;;;;;;;;;;;;;24.24;53.26074;102229.1;;;;-74
2023/08/10 11:18:58;;;;;;;;;;;;;;;24.21;53.36133;102227.7;;;;-70
2023/08/10 11:23:59;;;;;;;;;;;;;;;24.14;52.97266;102215.8;;;;-70
2023/08/10 11:28:58;;;;;;;;;;;;;;;24.12;52.1543;102209.2;;;;-70
2023/08/10 11:33:58;;;;;;;;;;;;;;;24.18;52.9668;102205.7;;;;-70
2023/08/10 11:39:10;;;;;;;;;;;;;;;24.33;52.52441;102199.1;;;;-71
2023/08/10 11:40:48;;;;;;;0.2;0;;;;;;;;;;;;;-70
2023/08/10 11:43:58;;;;;;;;;;;;;;;24.51;51.85352;102206.5;;;;-70
2023/08/10 11:48:58;;;;;;;;;;;;;;;24.77;51.90625;102211.8;;;;-69
2023/08/10 11:53:59;;;;;;;;;;;;;;;25.03;51.6709;102208.2;;;;-71
2023/08/10 11:58:58;;;;;;;;;;;;;;;25.17;50.73047;102202.7;;;;-69
2023/08/10 12:03:58;;;;;;;;;;;;;;;25.3;50.20313;102196.5;;;;-69
2023/08/10 12:08:58;;;;;;;;;;;;;;;25.34;49.89453;102195.3;;;;-70
2023/08/10 12:10:55;;;;;;;0.2;0;;;;;;;;;;;;;-70
2023/08/10 12:13:58;;;;;;;;;;;;;;;25.46;50.11621;102190.3;;;;-70
2023/08/10 12:18:58;;;;;;;;;;;;;;;25.66;49.57129;102193;;;;-70
2023/08/10 12:24:01;;;;;;;;;;;;;;;25.93;49.60156;102194.7;;;;-70
2023/08/10 12:28:58;;;;;;;;;;;;;;;26.07;49.03906;102195.5;;;;-70
2023/08/10 12:33:58;;;;;;;;;;;;;;;26.21;49.19336;102196.3;;;;-70
2023/08/10 12:39:01;;;;;;;;;;;;;;;26.32;48.27832;102196.9;;;;-70
2023/08/10 12:40:56;;;;;;;0.2;0;;;;;;;;;;;;;-70
2023/08/10 12:43:59;;;;;;;;;;;;;;;26.31;47.69922;102191.6;;;;-70
2023/08/10 12:48:58;;;;;;;;;;;;;;;26.41;47.15332;102199.3;;;;-70
2023/08/10 12:53:58;;;;;;;;;;;;;;;26.49;46.89453;102197.8;;;;-69
2023/08/10 12:58:58;;;;;;;;;;;;;;;26.65;47.3877;102198.3;;;;-70
2023/08/10 13:03:58;;;;;;;;;;;;;;;26.95;47.70898;102195.8;;;;-71
2023/08/10 13:08:58;;;;;;;;;;;;;;;27.19;46.53906;102198.5;;;;-71
2023/08/10 13:11:01;;;;;;;0.2;0;;;;;;;;;;;;;-70
2023/08/10 13:13:58;;;;;;;;;;;;;;;27.39;47.56934;102196.6;;;;-71
2023/08/10 13:18:58;;;;;;;;;;;;;;;27.5;46.25684;102202.4;;;;-70
2023/08/10 13:23:58;;;;;;;;;;;;;;;27.71;46.87012;102202.9;;;;-69
2023/08/10 13:28:58;;;;;;;;;;;;;;;27.75;45.41113;102205;;;;-70
2023/08/10 13:33:58;;;;;;;;;;;;;;;27.74;45.16602;102204;;;;-70
2023/08/10 13:38:58;;;;;;;;;;;;;;;27.78;47.25;102210.9;;;;-71
2023/08/10 13:41:05;;;;;;;0.2;0;;;;;;;;;;;;;-70
2023/08/10 13:43:58;;;;;;;;;;;;;;;27.8;46.08984;102199.2;;;;-70
2023/08/10 13:48:58;;;;;;;;;;;;;;;27.82;46.33594;102204.9;;;;-71
2023/08/10 13:53:58;;;;;;;;;;;;;;;27.8;45.96289;102206.5;;;;-71
2023/08/10 13:58:58;;;;;;;;;;;;;;;27.75;46.63184;102201.3;;;;-69
2023/08/10 14:03:58;;;;;;;;;;;;;;;27.71;46.87109;102200.4;;;;-70
2023/08/10 14:08:58;;;;;;;;;;;;;;;27.7;48.03223;102192.8;;;;-70
2023/08/10 14:11:10;;;;;;;0.2;0.1;;;;;;;;;;;;;-70
2023/08/10 14:13:58;;;;;;;;;;;;;;;27.73;48.29004;102192.6;;;;-70
2023/08/10 14:18:58;;;;;;;;;;;;;;;27.78;47.94727;102199.1;;;;-69
2023/08/10 14:23:58;;;;;;;;;;;;;;;27.81;48.22949;102199;;;;-70
2023/08/10 14:28:58;;;;;;;;;;;;;;;27.84;46.87402;102191.2;;;;-68
2023/08/10 14:33:58;;;;;;;;;;;;;;;27.86;46.27051;102185.7;;;;-70
2023/08/10 14:38:58;;;;;;;;;;;;;;;27.87;46.63281;102194.4;;;;-71
2023/08/10 14:41:15;;;;;;;0.2;0;;;;;;;;;;;;;-71
2023/08/10 14:43:58;;;;;;;;;;;;;;;27.82;46.84766;102197.9;;;;-70
2023/08/10 14:48:59;;;;;;;;;;;;;;;27.81;46.92773;102195.8;;;;-70
2023/08/10 14:53:58;;;;;;;;;;;;;;;27.8;46.81055;102197.2;;;;-70
2023/08/10 14:58:58;;;;;;;;;;;;;;;27.74;46.35254;102197.5;;;;-70
2023/08/10 15:03:58;;;;;;;;;;;;;;;27.72;47.55762;102186;;;;-72
2023/08/10 15:08:58;;;;;;;;;;;;;;;27.75;47.14258;102182;;;;-72
2023/08/10 15:11:20;;;;;;;0.2;0;;;;;;;;;;;;;-73
2023/08/10 15:13:58;;;;;;;;;;;;;;;27.72;47.30176;102176.2;;;;-73
2023/08/10 15:18:59;;;;;;;;;;;;;;;27.71;48.18262;102181.9;;;;-74
2023/08/10 15:23:58;;;;;;;;;;;;;;;27.66;49.45605;102183.5;;;;-73
2023/08/10 15:28:58;;;;;;;;;;;;;;;27.62;50.59961;102176.7;;;;-73
2023/08/10 15:33:58;;;;;;;;;;;;;;;27.66;49.65234;102175.5;;;;-73
2023/08/10 15:38:58;;;;;;;;;;;;;;;27.62;49.20703;102169.7;;;;-73
2023/08/10 15:41:25;;;;;;;0.2;0;;;;;;;;;;;;;-74
2023/08/10 15:43:58;;;;;;;;;;;;;;;27.61;49.97266;102170.8;;;;-74
2023/08/10 15:48:58;;;;;;;;;;;;;;;27.53;49.31348;102171;;;;-73
2023/08/10 15:53:58;;;;;;;;;;;;;;;27.5;49.7627;102158.6;;;;-72
2023/08/10 15:58:58;;;;;;;;;;;;;;;27.54;50.96289;102152.3;;;;-75
2023/08/10 16:04:00;;;;;;;;;;;;;;;27.65;52.04102;102153.3;;;;-73
2023/08/10 16:08:58;;;;;;;;;;;;;;;27.77;53.71484;102143.1;;;;-74
2023/08/10 16:11:30;;;;;;;0.2;0;;;;;;;;;;;;;-73
2023/08/10 16:13:58;;;;;;;;;;;;;;;27.92;53.55762;102146.7;;;;-74
2023/08/10 16:18:58;;;;;;;;;;;;;;;27.97;52.94922;102147;;;;-73
2023/08/10 16:23:58;;;;;;;;;;;;;;;27.98;52.75195;102152;;;;-72
2023/08/10 16:28:58;;;;;;;;;;;;;;;27.99;52;102153.5;;;;-73
2023/08/10 16:33:58;;;;;;;;;;;;;;;28.02;51.89844;102147.2;;;;-74
2023/08/10 16:38:58;;;;;;;;;;;;;;;28.07;51.4873;102150.5;;;;-73
2023/08/10 16:41:35;;;;;;;0.2;0;;;;;;;;;;;;;-73
2023/08/10 16:43:58;;;;;;;;;;;;;;;28.04;51.2627;102146.9;;;;-75
2023/08/10 16:48:58;;;;;;;;;;;;;;;28.01;51.57324;102150.6;;;;-73
2023/08/10 16:53:58;;;;;;;;;;;;;;;27.94;51.54102;102149.1;;;;-74
2023/08/10 16:58:58;;;;;;;;;;;;;;;27.85;51.57715;102151.5;;;;-70
2023/08/10 17:03:58;;;;;;;;;;;;;;;27.75;51.41602;102149.8;;;;-74
2023/08/10 17:08:58;;;;;;;;;;;;;;;27.66;51.3125;102155.6;;;;-73
2023/08/10 17:11:40;;;;;;;0.2;0.1;;;;;;;;;;;;;-74
2023/08/10 17:13:58;;;;;;;;;;;;;;;27.5;51.14355;102150.6;;;;-72
2023/08/10 17:18:58;;;;;;;;;;;;;;;27.4;51.23633;102153.1;;;;-74
2023/08/10 17:23:58;;;;;;;;;;;;;;;27.24;51.1377;102156.5;;;;-74
2023/08/10 17:28:58;;;;;;;;;;;;;;;27.09;51.51465;102154;;;;-73
2023/08/10 17:33:59;;;;;;;;;;;;;;;26.93;52.02832;102148;;;;-73
2023/08/10 17:38:58;;;;;;;;;;;;;;;26.77;52.43848;102154.3;;;;-72
2023/08/10 17:41:46;;;;;;;0.2;0;;;;;;;;;;;;;-73
2023/08/10 17:43:58;;;;;;;;;;;;;;;26.6;52.9043;102153.8;;;;-73
2023/08/10 17:48:58;;;;;;;;;;;;;;;26.42;53.14941;102143.8;;;;-73
2023/08/10 17:53:58;;;;;;;;;;;;;;;26.23;53.72754;102146;;;;-76
2023/08/10 17:58:58;;;;;;;;;;;;;;;26.05;54.37695;102151.7;;;;-74
2023/08/10 18:03:58;;;;;;;;;;;;;;;25.86;54.44629;102151.6;;;;-75
2023/08/10 18:08:58;;;;;;;;;;;;;;;25.69;54.51758;102155.6;;;;-74
2023/08/10 18:11:50;;;;;;;0.2;0;;;;;;;;;;;;;-74
2023/08/10 18:13:58;;;;;;;;;;;;;;;25.51;54.83008;102153.8;;;;-74
2023/08/10 18:18:58;;;;;;;;;;;;;;;25.32;54.98047;102155.1;;;;-74
2023/08/10 18:24:01;;;;;;;;;;;;;;;25.13;55.16504;102148.2;;;;-74
2023/08/10 18:28:58;;;;;;;;;;;;;;;24.94;55.20996;102146.5;;;;-74
2023/08/10 18:33:58;;;;;;;;;;;;;;;24.75;55.22363;102145.9;;;;-74
2023/08/10 18:38:58;;;;;;;;;;;;;;;24.56;55.08398;102136.6;;;;-73
2023/08/10 18:41:55;;;;;;;0.3;0.1;;;;;;;;;;;;;-73
2023/08/10 18:43:58;;;;;;;;;;;;;;;24.38;54.86621;102139.7;;;;-72
2023/08/10 18:48:58;;;;;;;;;;;;;;;24.2;55.12109;102140.9;;;;-71
2023/08/10 18:53:58;;;;;;;;;;;;;;;24.02;55.16699;102140.9;;;;-73
2023/08/10 18:58:59;;;;;;;;;;;;;;;23.83;55.48828;102144.4;;;;-73
2023/08/10 19:03:58;;;;;;;;;;;;;;;23.64;55.48828;102148.6;;;;-73
2023/08/10 19:08:58;;;;;;;;;;;;;;;23.46;55.48828;102147.3;;;;-72
2023/08/10 19:12:02;;;;;;;0.2;0.1;;;;;;;;;;;;;-73
2023/08/10 19:13:58;;;;;;;;;;;;;;;23.28;55.62695;102147.1;;;;-74
2023/08/10 19:18:58;;;;;;;;;;;;;;;23.09;55.22461;102153.9;;;;-73
2023/08/10 19:23:58;;;;;;;;;;;;;;;22.89;54.97168;102156.9;;;;-73
2023/08/10 19:28:58;;;;;;;;;;;;;;;22.69;55.09473;102163.1;;;;-74
2023/08/10 19:33:59;;;;;;;;;;;;;;;22.49;55.39258;102164.7;;;;-74
2023/08/10 19:38:58;;;;;;;;;;;;;;;22.3;55.6543;102167;;;;-74
2023/08/10 19:42:03;;;;;;;0.2;0;;;;;;;;;;;;;-74
2023/08/10 19:43:59;;;;;;;;;;;;;;;22.12;55.78125;102177.2;;;;-73
2023/08/10 19:48:58;;;;;;;;;;;;;;;21.95;55.89648;102174.6;;;;-73
2023/08/10 19:53:58;;;;;;;;;;;;;;;21.79;56.09473;102179.4;;;;-74
2023/08/10 19:58:58;;;;;;;;;;;;;;;21.61;56.1416;102179;;;;-72
2023/08/10 20:03:58;;;;;;;;;;;;;;;21.47;56.3623;102173.5;;;;-73
2023/08/10 20:08:58;;;;;;;;;;;;;;;21.33;56.40137;102176.1;;;;-74
2023/08/10 20:12:08;;;;;;;0.2;0;;;;;;;;;;;;;-73
2023/08/10 20:13:58;;;;;;;;;;;;;;;21.18;56.29199;102170.7;;;;-75
2023/08/10 20:18:58;;;;;;;;;;;;;;;21.03;56.4668;102163.6;;;;-72
2023/08/10 20:23:58;;;;;;;;;;;;;;;20.88;56.39063;102161;;;;-74
2023/08/10 20:28:58;;;;;;;;;;;;;;;20.73;56.53223;102165.3;;;;-72
2023/08/10 20:33:58;;;;;;;;;;;;;;;20.62;57.01855;102164.4;;;;-73
2023/08/10 20:38:58;;;;;;;;;;;;;;;20.49;57.01465;102162;;;;-73
2023/08/10 20:42:11;;;;;;;0.3;0.1;;;;;;;;;;;;;-74
2023/08/10 20:43:58;;;;;;;;;;;;;;;20.39;57.25195;102170.4;;;;-73
2023/08/10 20:48:58;;;;;;;;;;;;;;;20.27;57.38477;102174.5;;;;-73
2023/08/10 20:53:58;;;;;;;;;;;;;;;20.17;57.58691;102170.4;;;;-72
2023/08/10 20:58:59;;;;;;;;;;;;;;;20.06;57.73242;102171.4;;;;-70
2023/08/10 21:03:58;;;;;;;;;;;;;;;19.98;57.93848;102172.8;;;;-71
2023/08/10 21:08:58;;;;;;;;;;;;;;;19.87;57.75488;102173.2;;;;-70
2023/08/10 21:12:15;;;;;;;0.2;0;;;;;;;;;;;;;-70
2023/08/10 21:14:01;;;;;;;;;;;;;;;19.79;57.98242;102180.6;;;;-70
2023/08/10 21:18:58;;;;;;;;;;;;;;;19.67;58.09277;102177.9;;;;-70
2023/08/10 21:23:58;;;;;;;;;;;;;;;19.55;58.20215;102172.3;;;;-71
2023/08/10 21:28:58;;;;;;;;;;;;;;;19.48;58.51074;102176.7;;;;-70
2023/08/10 21:33:58;;;;;;;;;;;;;;;19.4;58.46582;102167.5;;;;-69
2023/08/10 21:38:58;;;;;;;;;;;;;;;19.34;58.60645;102162.7;;;;-69
2023/08/10 21:42:19;;;;;;;0.2;0;;;;;;;;;;;;;-70
2023/08/10 21:43:58;;;;;;;;;;;;;;;19.23;58.78516;102160.6;;;;-70
2023/08/10 21:48:58;;;;;;;;;;;;;;;19.18;58.90137;102159.8;;;;-70
2023/08/10 21:53:58;;;;;;;;;;;;;;;19.07;59.05859;102159.4;;;;-70
2023/08/10 21:58:58;;;;;;;;;;;;;;;18.98;59.38672;102156.1;;;;-70
2023/08/10 22:03:58;;;;;;;;;;;;;;;18.91;59.4668;102151.5;;;;-70
2023/08/10 22:08:58;;;;;;;;;;;;;;;18.83;59.45703;102147.6;;;;-70
2023/08/10 22:12:22;;;;;;;0.2;0;;;;;;;;;;;;;-70
2023/08/10 22:13:58;;;;;;;;;;;;;;;18.77;59.68848;102157.1;;;;-71
2023/08/10 22:18:58;;;;;;;;;;;;;;;18.71;59.54395;102149;;;;-70
2023/08/10 22:23:58;;;;;;;;;;;;;;;18.64;59.64746;102148.8;;;;-70
2023/08/10 22:28:58;;;;;;;;;;;;;;;18.57;59.92285;102147.5;;;;-71
2023/08/10 22:33:58;;;;;;;;;;;;;;;18.53;59.89355;102142.1;;;;-70
2023/08/10 22:38:58;;;;;;;;;;;;;;;18.47;59.72754;102134.2;;;;-70
2023/08/10 22:42:25;;;;;;;0.2;0.1;;;;;;;;;;;;;-70
2023/08/10 22:43:58;;;;;;;;;;;;;;;18.43;60.18555;102137.4;;;;-71
2023/08/10 22:48:58;;;;;;;;;;;;;;;18.36;60.02832;102136.3;;;;-70
2023/08/10 22:53:59;;;;;;;;;;;;;;;18.31;60.38477;102132;;;;-70
2023/08/10 22:58:58;;;;;;;;;;;;;;;18.26;60.43457;102133.2;;;;-69
2023/08/10 23:03:58;;;;;;;;;;;;;;;18.24;60.69238;102136.8;;;;-70
2023/08/10 23:09:00;;;;;;;;;;;;;;;18.19;60.90039;102136.8;;;;-69
2023/08/10 23:12:29;;;;;;;0.8;0.4;;;;;;;;;;;;;-70
2023/08/10 23:13:58;;;;;;;;;;;;;;;18.14;60.87109;102135.3;;;;-71
2023/08/10 23:18:58;;;;;;;;;;;;;;;18.1;61.12793;102128.5;;;;-70
2023/08/10 23:23:58;;;;;;;;;;;;;;;18.01;61.30762;102129.7;;;;-71
2023/08/10 23:28:58;;;;;;;;;;;;;;;18;61.65723;102126.9;;;;-70
2023/08/10 23:33:59;;;;;;;;;;;;;;;17.92;61.87207;102124.1;;;;-72
2023/08/10 23:38:58;;;;;;;;;;;;;;;17.88;61.90039;102127.3;;;;-70
2023/08/10 23:42:31;;;;;;;0.2;0;;;;;;;;;;;;;-70
2023/08/10 23:43:58;;;;;;;;;;;;;;;17.82;62.07324;102119.1;;;;-69
2023/08/10 23:48:58;;;;;;;;;;;;;;;17.81;62.37598;102111.6;;;;-71
2023/08/10 23:53:58;;;;;;;;;;;;;;;17.76;62.52832;102110.4;;;;-71
2023/08/10 23:58:58;;;;;;;;;;;;;;;17.73;62.4209;102105.5;;;;-70
